Time;durP1;ratioP1;P1;durP2;ratioP2;P2;SDS_P1;SDS_P2;PMS_P1;PMS_P2;Temp;Humidity;BMP_temperature;BMP_pressure;BME280_temperature;BME280_humidity;BME280_pressure;Samples;Min_cycle;Max_cycle;Signal;HPM_P1;HPM_P2
2024/04/03 00:00:01;;;;;;;36.60;11.10;;;;;;;-145.63;41.22;39075.09;5067213;28;20035;-67
2024/04/03 00:02:28;;;;;;;30.35;10.48;;;;;;;-145.63;41.46;39079.00;5059371;28;20045;-68
2024/04/03 00:04:53;;;;;;;30.50;10.60;;;;;;;-145.63;41.02;39032.06;5058005;28;20101;-68
2024/04/03 00:07:19;;;;;;;35.60;11.25;;;;;;;-145.63;40.72;39065.31;5070548;28;20044;-66
2024/04/03 00:09:44;;;;;;;27.73;10.55;;;;;;;-145.63;41.15;39088.78;5070655;28;20040;-67
2024/04/03 00:12:10;;;;;;;34.65;10.88;;;;;;;-145.63;41.55;39116.16;5071269;28;20373;-68
2024/04/03 00:14:36;;;;;;;37.25;10.77;;;;;;;-145.63;40.79;39096.59;5059329;28;20032;-67
2024/04/03 00:17:02;;;;;;;34.17;10.75;;;;;;;-145.63;40.62;39096.59;5071055;28;20424;-68
2024/04/03 00:19:28;;;;;;;34.83;11.30;;;;;;;-145.63;40.76;39125.94;5067644;28;20521;-67
2024/04/03 00:21:53;;;;;;;29.45;10.27;;;;;;;-145.63;40.97;39123.97;5063809;28;20064;-67
2024/04/03 00:24:19;;;;;;;33.75;9.93;;;;;;;-145.63;40.81;39114.22;5052221;28;20037;-67
2024/04/03 00:26:45;;;;;;;30.58;10.48;;;;;;;-145.63;41.13;39120.06;5064570;28;20047;-67
2024/04/03 00:29:39;;;;;;;33.58;11.23;;;;;;;-145.63;41.05;39116.16;5062791;28;20083;-66
2024/04/03 00:32:26;;;;;;;30.30;10.60;;;;;;;-145.63;40.81;39110.28;5065952;28;20050;-66
2024/04/03 00:35:10;;;;;;;33.25;11.13;;;;;;;-145.63;41.31;39133.75;5067796;28;20036;-66
2024/04/03 00:37:44;;;;;;;37.03;11.10;;;;;;;-145.63;41.09;39125.94;5073502;28;20036;-66
2024/04/03 00:40:40;;;;;;;31.17;10.45;;;;;;;-145.63;41.28;39135.72;5068665;28;20029;-67
2024/04/03 00:43:21;;;;;;;31.77;10.85;;;;;;;-145.63;41.04;39108.34;5036399;28;20165;-66
2024/04/03 00:45:50;;;;;;;30.35;10.10;;;;;;;-145.63;41.17;39139.63;5074116;28;20249;-66
2024/04/03 00:48:30;;;;;;;34.33;11.38;;;;;;;-145.63;40.72;39147.44;5074273;28;20028;-67
2024/04/03 00:50:57;;;;;;;34.30;10.25;;;;;;;-145.63;40.73;39125.94;5077128;28;20033;-68
2024/04/03 00:53:24;;;;;;;39.22;10.95;;;;;;;-145.63;40.79;39123.97;5074085;28;20029;-67
2024/04/03 00:55:50;;;;;;;31.45;9.73;;;;;;;-145.63;40.93;39112.25;5067934;28;20116;-66
2024/04/03 00:58:16;;;;;;;34.60;9.77;;;;;;;-145.63;40.93;39145.50;5055078;28;20117;-68
2024/04/03 01:00:42;;;;;;;33.17;9.25;;;;;;;-145.63;41.33;39170.91;5073942;28;20028;-66
2024/04/03 01:03:08;;;;;;;30.02;11.45;;;;;;;-145.63;41.15;39167.00;5057311;28;20032;-67
2024/04/03 01:05:34;;;;;;;29.20;10.43;;;;;;;-145.63;40.91;39165.06;5065342;28;20466;-66
2024/04/03 01:08:00;;;;;;;33.97;10.77;;;;;;;-145.63;40.86;39129.84;5073821;28;20056;-68
2024/04/03 01:10:27;;;;;;;31.38;9.68;;;;;;;-145.63;41.09;39122.03;5073559;28;20035;-68
2024/04/03 01:12:56;;;;;;;37.30;10.20;;;;;;;-145.63;40.74;39137.69;5055744;28;20082;-67
2024/04/03 01:15:22;;;;;;;31.65;10.93;;;;;;;-145.63;40.65;39118.13;5054937;28;20096;-68
2024/04/03 01:17:48;;;;;;;33.97;10.43;;;;;;;-145.63;40.70;39147.44;5067572;28;20448;-68
2024/04/03 01:20:16;;;;;;;36.92;9.80;;;;;;;-145.63;40.40;39118.13;5064625;28;20033;-70
2024/04/03 01:22:53;;;;;;;32.95;10.85;;;;;;;-145.63;40.71;39141.59;5073380;28;20036;-69
2024/04/03 01:25:24;;;;;;;28.38;9.75;;;;;;;-145.63;40.51;39141.59;5071815;28;20433;-69
2024/04/03 01:27:50;;;;;;;28.42;9.10;;;;;;;-145.63;40.84;39174.84;5053535;28;20082;-66
2024/04/03 01:30:15;;;;;;;31.83;10.10;;;;;;;-145.63;41.03;39174.84;5071027;28;20111;-68
2024/04/03 01:32:42;;;;;;;36.35;10.52;;;;;;;-145.63;41.44;39118.13;5060459;28;20134;-68
2024/04/03 01:35:08;;;;;;;31.58;10.23;;;;;;;-145.63;41.67;39174.84;5052175;28;20382;-67
2024/04/03 01:37:33;;;;;;;37.95;11.35;;;;;;;-145.63;41.29;39155.28;5072162;28;20035;-68
2024/04/03 01:39:59;;;;;;;34.83;10.18;;;;;;;-145.63;41.40;39139.63;5067788;28;20063;-66
2024/04/03 01:42:25;;;;;;;34.47;10.50;;;;;;;-145.63;41.18;39153.31;5063378;28;20512;-66
2024/04/03 01:44:51;;;;;;;35.50;10.52;;;;;;;-145.63;41.13;39118.13;5066918;28;20025;-67
2024/04/03 01:47:17;;;;;;;33.05;10.43;;;;;;;-145.63;41.15;39143.53;5073410;28;20036;-68
2024/04/03 01:49:42;;;;;;;28.52;9.10;;;;;;;-145.63;40.87;39170.91;5068941;28;20116;-67
2024/04/03 01:52:08;;;;;;;37.78;11.00;;;;;;;-145.63;40.84;39147.44;5074727;28;20094;-67
2024/04/03 01:54:33;;;;;;;31.33;9.70;;;;;;;-145.63;40.64;39145.50;5073370;28;20039;-68
2024/04/03 01:56:59;;;;;;;26.95;9.82;;;;;;;-145.63;41.12;39190.47;5058492;28;20432;-68
2024/04/03 01:59:25;;;;;;;32.83;10.85;;;;;;;-145.63;40.78;39182.66;5062759;28;20037;-66
2024/04/03 02:01:50;;;;;;;34.63;10.27;;;;;;;-145.63;40.83;39163.09;5067475;28;20032;-68
2024/04/03 02:04:22;;;;;;;37.63;12.95;;;;;;;-145.63;40.99;39163.09;5035943;28;20067;-67
2024/04/03 02:06:50;;;;;;;29.65;9.93;;;;;;;-145.63;40.26;39127.91;5071760;28;20075;-67
2024/04/03 02:09:16;;;;;;;27.85;10.10;;;;;;;-145.63;40.64;39165.06;5073189;28;20068;-67
2024/04/03 02:11:42;;;;;;;26.50;9.27;;;;;;;-145.63;40.68;39135.72;5072507;28;20033;-67
2024/04/03 02:14:12;;;;;;;28.00;9.68;;;;;;;-145.63;40.62;39137.69;5064671;28;20071;-67
2024/04/03 02:16:43;;;;;;;35.67;10.48;;;;;;;-145.63;40.74;39153.31;5065939;28;20098;-68
2024/04/03 02:19:09;;;;;;;33.63;10.88;;;;;;;-145.63;39.98;39153.31;5073015;28;20040;-67
2024/04/03 02:21:35;;;;;;;32.00;10.75;;;;;;;-145.63;40.08;39208.06;5063310;28;20039;-67
2024/04/03 02:24:02;;;;;;;34.10;10.30;;;;;;;-145.63;40.47;39165.06;5073265;28;20052;-68
2024/04/03 02:26:28;;;;;;;33.30;9.75;;;;;;;-145.63;40.36;39141.59;5061814;28;20029;-69
2024/04/03 02:28:53;;;;;;;35.42;10.70;;;;;;;-145.63;40.46;39149.41;5057713;28;20078;-66
2024/04/03 02:31:19;;;;;;;27.13;9.80;;;;;;;-145.63;40.13;39149.41;5071164;28;20055;-67
2024/04/03 02:33:45;;;;;;;29.90;9.75;;;;;;;-145.63;40.30;39165.06;5052497;28;20120;-66
2024/04/03 02:36:12;;;;;;;26.80;9.63;;;;;;;-145.63;40.21;39153.31;5067817;28;20032;-68
2024/04/03 02:38:38;;;;;;;30.73;9.73;;;;;;;-145.63;40.02;39168.97;5072294;28;20166;-67
2024/04/03 02:41:04;;;;;;;33.50;10.27;;;;;;;-145.63;39.63;39170.91;5064044;28;20447;-68
2024/04/03 02:43:30;;;;;;;33.08;9.43;;;;;;;-145.63;40.01;39131.81;5058341;28;20037;-66
2024/04/03 02:45:56;;;;;;;31.50;10.10;;;;;;;-145.63;39.66;39186.56;5072402;28;20043;-66
2024/04/03 02:48:21;;;;;;;28.38;9.55;;;;;;;-145.63;39.59;39170.91;5072334;28;20043;-68
2024/04/03 02:51:00;;;;;;;31.35;9.45;;;;;;;-145.63;39.34;39151.38;5074092;28;20033;-67
2024/04/03 02:53:26;;;;;;;35.30;10.27;;;;;;;-145.63;39.68;39168.97;5072135;28;20051;-66
2024/04/03 02:55:51;;;;;;;37.42;10.77;;;;;;;-145.63;39.65;39170.91;5066468;28;20568;-67
2024/04/03 02:58:17;;;;;;;37.95;10.15;;;;;;;-145.63;39.46;38730.91;5052118;28;20449;-67
2024/04/03 03:00:43;;;;;;;34.10;9.73;;;;;;;-145.63;39.56;39165.06;5071768;28;20055;-68
2024/04/03 03:03:09;;;;;;;31.60;10.25;;;;;;;-145.63;39.31;39137.69;5055874;28;20029;-66
2024/04/03 03:05:35;;;;;;;38.78;9.68;;;;;;;-145.63;39.26;39196.34;5062204;28;20032;-67
2024/04/03 03:08:02;;;;;;;24.73;9.32;;;;;;;-145.63;39.04;39176.78;5071854;28;20029;-67
2024/04/03 03:10:31;;;;;;;40.72;10.25;;;;;;;-145.63;39.50;39170.91;5071442;28;20033;-67
2024/04/03 03:12:59;;;;;;;34.80;10.18;;;;;;;-145.63;39.10;39170.91;5071574;28;20036;-67
2024/04/03 03:15:25;;;;;;;31.13;9.10;;;;;;;-145.63;38.96;39188.53;5071302;28;20028;-67
2024/04/03 03:17:51;;;;;;;30.55;8.85;;;;;;;-145.63;38.75;39165.06;5058244;28;20036;-67
2024/04/03 03:20:16;;;;;;;32.08;9.27;;;;;;;-145.63;38.88;39155.28;5059900;28;20182;-67
2024/04/03 03:22:43;;;;;;;30.08;9.10;;;;;;;-145.63;38.96;39149.41;5071266;28;20033;-67
2024/04/03 03:25:08;;;;;;;32.70;10.00;;;;;;;-145.63;38.87;39153.31;5071361;28;20033;-67
2024/04/03 03:27:34;;;;;;;31.55;9.20;;;;;;;-145.63;38.45;39153.31;5051907;28;20040;-67
2024/04/03 03:30:00;;;;;;;32.22;9.77;;;;;;;-145.63;38.41;39155.28;5065492;28;20497;-67
2024/04/03 03:32:25;;;;;;;28.73;9.27;;;;;;;-145.63;38.26;39153.31;5059990;28;20032;-67
2024/04/03 03:34:51;;;;;;;47.03;10.35;;;;;;;-145.63;38.20;39163.09;5055602;28;20040;-67
2024/04/03 03:37:17;;;;;;;35.88;9.07;;;;;;;-145.63;38.38;39161.13;5064409;28;20056;-66
2024/04/03 03:39:43;;;;;;;45.03;9.68;;;;;;;-145.63;38.85;39212.00;5068472;28;20111;-66
2024/04/03 03:42:10;;;;;;;32.65;9.02;;;;;;;-145.63;38.52;39149.41;5062074;28;20041;-67
2024/04/03 03:44:35;;;;;;;38.50;9.90;;;;;;;-145.63;37.84;39163.09;5051027;28;20025;-67
2024/04/03 03:47:01;;;;;;;31.55;9.32;;;;;;;-145.63;38.33;39153.31;5057318;28;20404;-67
2024/04/03 03:55:00;;;;;;;38.38;9.55;;;;;;;-145.63;37.52;39122.03;5051024;28;20789;-67
2024/04/03 03:57:29;;;;;;;35.95;9.55;;;;;;;-145.63;37.71;39131.81;5068251;28;20029;-67
2024/04/03 03:59:55;;;;;;;43.50;9.95;;;;;;;-145.63;37.93;39145.50;5057440;28;20045;-66
2024/04/03 04:02:21;;;;;;;36.50;10.02;;;;;;;-145.63;37.93;39112.25;5060112;28;20128;-67
2024/04/03 04:04:56;;;;;;;29.98;9.88;;;;;;;-145.63;37.54;39145.50;5070803;28;20124;-66
2024/04/03 04:10:27;;;;;;;33.20;9.32;;;;;;;-145.63;37.76;39135.72;5074943;28;20493;-66
2024/04/03 04:12:54;;;;;;;35.60;10.82;;;;;;;-145.63;37.27;39100.50;5074345;28;20110;-65
2024/04/03 04:15:26;;;;;;;32.60;9.40;;;;;;;-145.63;37.35;39133.75;5072112;28;20032;-66
2024/04/03 04:18:10;;;;;;;30.63;8.98;;;;;;;-145.63;37.88;39114.22;5062619;28;20155;-66
2024/04/03 04:20:58;;;;;;;35.47;9.70;;;;;;;-145.63;37.42;39251.09;5067029;28;20131;-66
2024/04/03 04:23:26;;;;;;;40.20;9.23;;;;;;;-145.63;37.38;39092.69;5067173;28;20041;-66
2024/04/03 04:26:03;;;;;;;31.58;9.48;;;;;;;-145.63;37.47;39157.22;5065444;28;20033;-66
2024/04/03 04:28:29;;;;;;;41.08;10.20;;;;;;;-145.63;37.34;39110.28;5073124;28;20028;-68
2024/04/03 04:31:05;;;;;;;26.88;8.98;;;;;;;-145.63;37.08;39035.97;5058621;28;20174;-67
2024/04/03 04:33:36;;;;;;;29.15;9.43;;;;;;;-145.63;37.08;39073.13;5065276;28;20040;-68
2024/04/03 04:36:13;;;;;;;29.42;8.32;;;;;;;-145.63;36.87;39073.13;5069782;28;20032;-69
2024/04/03 04:39:12;;;;;;;38.38;8.55;;;;;;;-145.63;36.70;39055.53;5074619;28;20041;-67
2024/04/03 04:41:51;;;;;;;34.30;8.48;;;;;;;-145.63;36.98;39051.63;5068849;28;20036;-71
2024/04/03 04:44:17;;;;;;;30.30;8.80;;;;;;;-145.63;36.89;39163.09;5074393;28;20024;-68
2024/04/03 04:47:11;;;;;;;31.27;8.63;;;;;;;-145.63;36.76;39102.47;5067056;28;20036;-69
2024/04/03 04:49:48;;;;;;;29.05;8.30;;;;;;;-145.63;37.01;39061.41;5073642;28;20115;-68
2024/04/03 04:52:14;;;;;;;39.42;9.57;;;;;;;-145.63;36.83;39092.69;5077763;28;20112;-67
2024/04/03 04:54:40;;;;;;;35.30;8.90;;;;;;;-145.63;36.90;39086.81;5055829;28;20048;-68
2024/04/03 04:57:09;;;;;;;32.50;8.32;;;;;;;-145.63;37.01;39039.88;5050251;28;20068;-67
2024/04/03 04:59:36;;;;;;;31.75;8.60;;;;;;;-145.63;36.59;39075.09;5073839;28;20461;-68
2024/04/03 05:02:02;;;;;;;36.72;8.77;;;;;;;-145.63;36.52;39028.16;5068453;28;20466;-68
2024/04/03 05:04:28;;;;;;;34.60;7.72;;;;;;;-145.63;35.99;39057.50;5054004;28;20035;-67
2024/04/03 05:06:57;;;;;;;28.83;8.75;;;;;;;-145.63;36.22;39071.19;5067744;28;20028;-66
2024/04/03 05:09:29;;;;;;;25.65;7.93;;;;;;;-145.63;35.80;39106.38;5061692;28;20134;-67
2024/04/03 05:12:25;;;;;;;30.05;8.60;;;;;;;-145.63;36.55;39094.66;5071868;28;20056;-67
2024/04/03 05:14:51;;;;;;;38.75;8.70;;;;;;;-145.63;36.12;39045.75;5056529;28;20104;-65
2024/04/03 05:17:18;;;;;;;39.72;8.00;;;;;;;-145.63;35.81;39008.59;5065491;28;20120;-67
2024/04/03 05:20:11;;;;;;;31.92;7.90;;;;;;;-145.63;35.75;39067.28;5073567;28;20039;-67
2024/04/03 05:22:58;;;;;;;28.05;8.15;;;;;;;-145.63;36.11;38989.03;5058375;28;20052;-66
2024/04/03 05:25:23;;;;;;;31.33;7.50;;;;;;;-145.63;35.75;39016.44;5073089;28;20060;-67
2024/04/03 05:27:49;;;;;;;27.83;7.57;;;;;;;-145.63;35.66;38973.41;5073679;28;20063;-70
2024/04/03 05:30:15;;;;;;;26.60;8.15;;;;;;;-145.63;35.93;39018.38;5073018;28;20048;-68
2024/04/03 05:38:53;;;;;;;33.13;9.52;;;;;;;-145.63;35.57;39004.69;5061959;28;20053;-69
2024/04/03 05:41:18;;;;;;;38.22;7.95;;;;;;;-145.63;35.47;38994.91;5062099;28;20042;-70
2024/04/03 05:44:01;;;;;;;33.47;8.13;;;;;;;-145.63;35.60;38985.13;5069996;28;20036;-69
2024/04/03 05:46:27;;;;;;;24.55;7.93;;;;;;;-145.63;34.97;38899.09;5053707;28;20155;-67
2024/04/03 05:48:52;;;;;;;30.77;7.75;;;;;;;-145.63;34.27;38879.53;5072831;28;20056;-67
2024/04/03 05:51:18;;;;;;;25.27;7.93;;;;;;;-145.63;33.48;38897.13;5085020;28;20036;-68
2024/04/03 05:54:05;;;;;;;29.05;8.00;;;;;;;-145.63;33.55;38824.78;5071476;28;20099;-68
2024/04/03 05:56:31;;;;;;;30.90;8.55;;;;;;;-145.63;32.97;38840.44;5063259;28;20165;-68
2024/04/03 05:59:06;;;;;;;40.63;8.07;;;;;;;-145.63;33.00;38818.91;5068190;28;20116;-68
2024/04/03 06:01:41;;;;;;;34.03;8.70;;;;;;;-145.63;32.19;38816.97;5053764;28;20037;-67
2024/04/03 06:04:06;;;;;;;31.42;7.78;;;;;;;-145.63;32.05;38816.97;5073271;28;20419;-68
2024/04/03 06:06:32;;;;;;;34.45;8.27;;;;;;;-145.63;31.77;38750.47;5055087;28;20033;-67
2024/04/03 06:08:58;;;;;;;32.95;8.73;;;;;;;-145.63;31.50;38556.88;5064752;28;20024;-69
2024/04/03 06:11:24;;;;;;;28.88;7.50;;;;;;;-145.63;31.22;38744.59;5072393;28;20040;-66
2024/04/03 06:13:50;;;;;;;25.85;7.63;;;;;;;-145.63;31.36;38805.22;5069267;28;20036;-68
2024/04/03 06:16:18;;;;;;;26.67;7.60;;;;;;;-145.63;31.66;38832.59;5052593;28;20064;-66
2024/04/03 06:18:44;;;;;;;28.17;6.75;;;;;;;-145.63;31.45;38795.44;5050898;28;20426;-67
2024/04/03 06:21:13;;;;;;;27.05;7.15;;;;;;;-145.63;32.06;38836.50;5066400;28;20097;-67
2024/04/03 06:23:39;;;;;;;27.77;8.13;;;;;;;-145.63;31.31;38754.38;5062739;28;20141;-67
2024/04/03 06:26:42;;;;;;;28.33;8.23;;;;;;;-145.63;30.93;38801.31;5059203;28;20112;-68
2024/04/03 06:29:26;;;;;;;37.05;8.65;;;;;;;-145.63;31.08;38758.28;5072796;28;20129;-67
2024/04/03 06:31:52;;;;;;;25.40;6.82;;;;;;;-145.63;29.97;38723.09;5077588;28;20086;-67
2024/04/03 06:34:18;;;;;;;28.83;7.30;;;;;;;-145.63;29.73;38680.06;5090290;28;20042;-67
2024/04/03 06:37:30;;;;;;;27.33;6.70;;;;;;;-145.63;29.27;38660.53;5076922;28;20065;-67
2024/04/03 06:40:11;;;;;;;24.63;7.43;;;;;;;-145.63;28.94;38605.78;5052133;28;20031;-68
2024/04/03 06:42:40;;;;;;;27.55;6.97;;;;;;;-145.63;28.40;38551.03;5080343;28;20436;-67
2024/04/03 06:45:06;;;;;;;21.77;5.25;;;;;;;-145.63;27.23;38537.34;5076743;28;20028;-67
2024/04/03 06:47:35;;;;;;;19.23;5.40;;;;;;;-145.63;27.36;38570.56;5060448;28;20024;-67
2024/04/03 06:50:04;;;;;;;28.13;6.47;;;;;;;-145.63;27.32;38529.50;5078699;28;20121;-67
2024/04/03 06:52:35;;;;;;;20.92;6.75;;;;;;;-145.63;26.42;38468.91;5092004;28;20032;-68
2024/04/03 06:55:04;;;;;;;16.83;5.88;;;;;;;-145.63;26.51;38519.72;5066305;28;20040;-67
2024/04/03 06:57:39;;;;;;;18.10;4.82;;;;;;;-145.63;26.48;38554.94;5060309;28;20063;-68
2024/04/03 07:02:49;;;;;;;20.50;5.30;;;;;;;-145.63;25.99;38464.97;5061142;28;20036;-68
2024/04/03 07:05:15;;;;;;;22.90;5.90;;;;;;;-145.63;25.63;38423.91;5065512;28;20033;-68
2024/04/03 07:07:43;;;;;;;21.73;5.57;;;;;;;-145.63;25.22;38371.13;5053380;28;20025;-68
2024/04/03 07:10:09;;;;;;;15.93;4.75;;;;;;;-145.63;24.72;38447.38;5071138;28;20143;-67
2024/04/03 07:13:24;;;;;;;20.92;4.22;;;;;;;-145.63;24.64;38449.34;5071794;28;20524;-67
2024/04/03 07:16:04;;;;;;;13.15;4.55;;;;;;;-145.63;25.00;38523.66;5085181;28;20073;-69
2024/04/03 07:22:24;;;;;;;12.93;4.03;;;;;;;-145.63;23.66;38388.72;5089238;28;20920;-69
2024/04/03 07:24:50;;;;;;;20.73;4.07;;;;;;;-145.63;24.33;38382.88;5051253;28;20033;-68
2024/04/03 07:27:16;;;;;;;17.85;4.43;;;;;;;-145.63;23.65;38416.09;5076898;28;20046;-67
2024/04/03 07:29:41;;;;;;;17.23;3.65;;;;;;;-145.63;23.33;38414.16;5071289;28;20036;-67
2024/04/03 07:32:28;;;;;;;16.45;3.80;;;;;;;-145.63;23.14;38300.75;5056131;28;20044;-67
2024/04/03 07:34:53;;;;;;;13.65;3.40;;;;;;;-145.63;22.60;38300.75;5069614;28;20112;-68
2024/04/03 07:37:19;;;;;;;16.15;3.30;;;;;;;-145.63;22.28;38277.28;5090560;28;20246;-68
2024/04/03 07:39:45;;;;;;;17.52;3.63;;;;;;;-145.63;22.13;38289.00;5053455;28;20033;-68
2024/04/03 07:42:10;;;;;;;13.65;3.53;;;;;;;-145.63;22.58;38148.22;5067266;28;20028;-67
2024/04/03 07:44:36;;;;;;;14.50;3.22;;;;;;;-145.63;22.74;38390.69;5062452;28;20533;-67
2024/04/03 07:47:03;;;;;;;17.40;3.33;;;;;;;-145.63;22.71;38378.94;5054291;28;20068;-69
2024/04/03 07:49:28;;;;;;;11.38;2.70;;;;;;;-145.63;23.29;38482.59;5071055;28;20098;-67
2024/04/03 07:51:57;;;;;;;13.18;3.10;;;;;;;-145.63;22.86;38556.88;5088327;28;20059;-67
2024/04/03 07:55:12;;;;;;;29.52;3.63;;;;;;;-145.63;23.12;38468.91;5058922;28;20033;-69
2024/04/03 07:58:18;;;;;;;14.10;2.85;;;;;;;-145.63;22.92;38525.59;5071143;28;20033;-67
2024/04/03 08:01:20;;;;;;;15.63;3.13;;;;;;;-145.63;23.12;38496.28;5070409;28;20056;-67
2024/04/03 08:07:13;;;;;;;16.48;2.70;;;;;;;-145.63;23.27;38488.44;5056491;28;20031;-66
2024/04/03 08:09:38;;;;;;;12.70;2.42;;;;;;;-145.63;23.13;38502.13;5067721;28;20035;-67
2024/04/03 08:12:04;;;;;;;10.00;2.55;;;;;;;-145.63;23.06;38470.84;5071260;28;20032;-67
2024/04/03 08:14:30;;;;;;;12.00;2.60;;;;;;;-145.63;23.56;38484.53;5060200;28;20029;-68
2024/04/03 08:19:42;;;;;;;14.57;2.78;;;;;;;-145.63;23.32;38574.47;5070108;28;20028;-67
2024/04/03 08:22:13;;;;;;;12.80;2.95;;;;;;;-145.63;23.43;38547.09;5069300;28;20802;-67
2024/04/03 08:24:45;;;;;;;16.05;2.70;;;;;;;-145.63;23.71;38539.28;5059230;28;20091;-66
2024/04/03 08:27:26;;;;;;;16.80;2.72;;;;;;;-145.63;23.81;38560.78;5066109;28;20087;-66
2024/04/03 08:29:55;;;;;;;110.78;8.90;;;;;;;-145.63;24.51;38691.81;5054278;28;22505;-65
2024/04/03 08:32:21;;;;;;;13.65;3.13;;;;;;;-145.63;24.92;38713.31;5063152;28;20060;-67
2024/04/03 08:34:51;;;;;;;14.70;2.60;;;;;;;-145.63;24.83;38684.00;5056986;28;20464;-67
2024/04/03 08:40:23;;;;;;;17.98;3.10;;;;;;;-145.63;25.52;38709.41;5050774;28;20056;-67
2024/04/03 08:42:56;;;;;;;11.65;2.55;;;;;;;-145.63;25.85;38773.94;5060175;28;20110;-66
2024/04/03 08:45:53;;;;;;;16.88;2.83;;;;;;;-145.63;25.75;38742.66;5069003;28;20028;-68
2024/04/03 08:49:07;;;;;;;15.90;2.25;;;;;;;-145.63;25.81;38734.81;5062256;28;20067;-66
2024/04/03 08:51:48;;;;;;;18.23;3.13;;;;;;;-145.63;25.77;38766.13;5065281;28;20470;-66
2024/04/03 08:54:15;;;;;;;20.38;2.63;;;;;;;-145.63;25.02;38691.81;5063104;28;20509;-67
2024/04/03 08:56:41;;;;;;;15.45;2.20;;;;;;;-145.63;25.13;38750.47;5070062;28;20021;-67
2024/04/03 08:59:07;;;;;;;8.43;2.50;;;;;;;-145.63;24.58;38664.44;5052535;28;20449;-67
2024/04/03 09:01:49;;;;;;;12.60;2.58;;;;;;;-145.63;24.33;38640.97;5065416;28;20037;-68
2024/04/03 09:04:18;;;;;;;14.27;2.40;;;;;;;-145.63;24.10;38529.50;5054468;28;20118;-67
2024/04/03 09:07:08;;;;;;;16.27;2.95;;;;;;;-145.63;24.31;38707.44;5070880;28;20040;-66
2024/04/03 09:09:49;;;;;;;30.40;3.38;;;;;;;-145.63;24.06;38623.38;5057641;28;20033;-66
2024/04/03 09:12:26;;;;;;;21.95;3.10;;;;;;;-145.63;24.18;38629.22;5063493;28;20131;-68
2024/04/03 09:15:05;;;;;;;27.88;3.38;;;;;;;-145.63;24.42;38719.19;5066047;28;20068;-67
2024/04/03 09:17:31;;;;;;;13.25;3.20;;;;;;;-145.63;24.46;38617.50;5073555;28;20048;-67
2024/04/03 09:19:56;;;;;;;10.68;2.50;;;;;;;-145.63;24.61;38701.59;5070566;28;20081;-67
2024/04/03 09:22:22;;;;;;;10.23;2.25;;;;;;;-145.63;24.84;38838.47;5073115;28;20127;-68
2024/04/03 09:25:15;;;;;;;12.15;2.47;;;;;;;-145.63;25.35;38738.75;5070972;28;20028;-66
2024/04/03 09:28:18;;;;;;;13.43;2.65;;;;;;;-145.63;25.31;38777.84;5042262;28;20081;-66
2024/04/03 09:30:51;;;;;;;9.63;2.78;;;;;;;-145.63;25.44;38699.63;5065467;28;20102;-67
2024/04/03 09:33:28;;;;;;;10.05;2.63;;;;;;;-145.63;25.47;38771.97;5059416;28;20057;-66
2024/04/03 09:35:53;;;;;;;11.60;2.33;;;;;;;-145.63;25.37;38777.84;5059938;28;20029;-68
2024/04/03 09:38:19;;;;;;;10.55;2.55;;;;;;;-145.63;25.29;38758.28;5060369;28;20028;-66
2024/04/03 09:40:50;;;;;;;17.30;3.28;;;;;;;-145.63;24.95;38728.97;5059521;28;20537;-67
2024/04/03 09:43:27;;;;;;;18.45;3.20;;;;;;;-145.63;24.94;38725.06;5061592;28;20497;-66
2024/04/03 09:46:19;;;;;;;13.25;3.20;;;;;;;-145.63;25.01;38707.44;5033242;28;20492;-68
2024/04/03 09:48:50;;;;;;;17.83;3.10;;;;;;;-145.63;25.11;38727.00;5070239;28;20063;-68
2024/04/03 09:51:20;;;;;;;20.17;3.78;;;;;;;-145.63;24.83;38770.03;5074606;28;20029;-66
2024/04/03 09:54:09;;;;;;;20.70;3.17;;;;;;;-145.63;25.47;38801.31;5072869;28;20048;-68
2024/04/03 09:56:39;;;;;;;;;;;;;;;-145.63;25.48;38861.94;5065567;28;20178;-67
2024/04/03 09:59:07;;;;;;;16.58;3.70;;;;;;;-145.63;26.18;38858.03;5055115;28;19912;-67
2024/04/03 10:01:41;;;;;;;16.13;3.40;;;;;;;-145.63;25.96;38885.41;5062755;28;20045;-66
2024/04/03 10:04:27;;;;;;;14.80;3.08;;;;;;;-145.63;25.80;38871.72;5053377;28;20032;-66
2024/04/03 10:07:26;;;;;;;25.02;3.17;;;;;;;-145.63;25.84;38899.09;5070575;28;20461;-66
2024/04/03 10:09:58;;;;;;;16.77;3.05;;;;;;;-145.63;25.33;38836.50;5072648;28;20456;-66
2024/04/03 10:12:33;;;;;;;9.80;2.90;;;;;;;-145.63;25.91;38897.13;5058415;28;20087;-68
2024/04/03 10:15:05;;;;;;;24.02;3.00;;;;;;;-145.63;25.65;38906.91;5060613;28;20556;-66
2024/04/03 10:17:49;;;;;;;16.05;2.88;;;;;;;-145.63;25.69;38908.88;5064329;28;20032;-67
2024/04/03 10:20:38;;;;;;;17.42;2.95;;;;;;;-145.63;26.20;38930.38;5065916;28;20028;-67
2024/04/03 10:23:09;;;;;;;13.48;2.78;;;;;;;-145.63;26.31;38961.66;5070321;28;20040;-67
2024/04/03 10:28:54;;;;;;;11.90;2.60;;;;;;;-145.63;26.80;38916.69;5056038;28;19912;-65
2024/04/03 10:31:28;;;;;;;23.70;3.35;;;;;;;-145.63;26.56;38816.97;5052751;28;20359;-67
2024/04/03 10:33:54;;;;;;;15.52;3.05;;;;;;;-145.63;27.32;38897.13;5070576;28;20040;-65
2024/04/03 10:36:20;;;;;;;21.73;3.45;;;;;;;-145.63;28.00;38924.50;5066290;28;20051;-65
2024/04/03 10:38:45;;;;;;;22.55;2.75;;;;;;;-145.63;28.08;38910.81;5063458;28;20040;-67
2024/04/03 10:41:12;;;;;;;19.90;3.25;;;;;;;-145.63;27.97;38908.88;5060955;28;20033;-66
2024/04/03 10:43:38;;;;;;;13.65;2.13;;;;;;;-145.63;26.93;38899.09;5061631;28;20067;-65
2024/04/03 10:46:11;;;;;;;12.50;1.92;;;;;;;-145.63;26.39;38852.16;5058755;28;20060;-67
2024/04/03 10:48:42;;;;;;;15.80;2.58;;;;;;;-145.63;25.93;38711.38;5052159;28;20041;-67
2024/04/03 10:55:03;;;;;;;7.85;1.95;;;;;;;-145.63;25.50;38942.13;5068500;28;20448;-67
2024/04/03 10:57:35;;;;;;;7.72;2.17;;;;;;;-145.63;25.29;38934.28;5057852;28;20033;-68
2024/04/03 11:00:02;;;;;;;7.55;1.40;;;;;;;-145.63;25.16;38977.31;5072391;28;20090;-69
2024/04/03 11:02:30;;;;;;;18.98;1.67;;;;;;;-145.63;25.00;38971.44;5073098;28;20033;-67
2024/04/03 11:04:56;;;;;;;8.23;1.30;;;;;;;-145.63;24.86;38949.94;5070216;28;20339;-67
2024/04/03 11:07:25;;;;;;;10.60;1.45;;;;;;;-145.63;24.93;38985.13;5061042;28;20031;-68
2024/04/03 11:10:06;;;;;;;8.95;1.60;;;;;;;-145.63;25.22;39022.28;5041718;28;20083;-67
2024/04/03 11:16:36;;;;;;;12.88;1.77;;;;;;;-145.63;25.32;39030.13;5059357;28;20037;-68
2024/04/03 11:19:20;;;;;;;7.53;1.50;;;;;;;-145.63;25.58;38959.72;5064251;28;20047;-67
2024/04/03 11:21:46;;;;;;;5.93;0.90;;;;;;;-145.63;25.52;38983.19;5073401;28;20036;-66
2024/04/03 11:24:12;;;;;;;10.60;1.27;;;;;;;-145.63;24.94;38983.19;5066479;28;20052;-66
2024/04/03 11:26:37;;;;;;;5.90;1.30;;;;;;;-145.63;25.55;38969.50;5075307;28;20066;-64
2024/04/03 11:29:38;;;;;;;5.30;1.02;;;;;;;-145.63;25.39;39012.50;5070059;28;20039;-65
2024/04/03 11:32:16;;;;;;;4.57;0.95;;;;;;;-145.63;26.30;38989.03;5066864;28;20040;-66
2024/04/03 11:35:08;;;;;;;6.78;1.10;;;;;;;-145.63;25.88;38991.00;5082217;28;20437;-65
2024/04/03 11:41:20;;;;;;;2.85;0.93;;;;;;;-145.63;26.31;38996.88;5054204;28;20362;-65
2024/04/03 11:43:45;;;;;;;10.80;1.38;;;;;;;-145.63;25.91;39006.66;5050950;28;20485;-65
2024/04/03 11:46:11;;;;;;;36.72;3.22;;;;;;;-145.63;26.17;38991.00;5063095;28;20028;-64
2024/04/03 11:48:37;;;;;;;4.63;1.13;;;;;;;-145.63;26.58;39018.38;5069116;28;20032;-65
2024/04/03 11:51:05;;;;;;;5.85;1.13;;;;;;;-145.63;27.15;39043.81;5066670;28;20041;-65
2024/04/03 11:53:51;;;;;;;6.45;0.90;;;;;;;-145.63;26.74;39094.66;5068801;28;20361;-65
2024/04/03 11:56:29;;;;;;;4.75;1.10;;;;;;;-145.63;26.84;39035.97;5070862;28;20456;-66
2024/04/03 11:59:44;;;;;;;5.65;1.10;;;;;;;-145.63;27.32;39053.59;5071010;28;20037;-66
2024/04/03 12:02:59;;;;;;;6.70;1.02;;;;;;;-145.63;27.36;39049.66;5062001;28;20052;-66
2024/04/03 12:05:28;;;;;;;3.80;1.13;;;;;;;-145.63;26.75;39008.59;5055736;28;20067;-66
2024/04/03 12:07:53;;;;;;;6.72;1.00;;;;;;;-145.63;26.66;39028.16;5070450;28;20044;-65
2024/04/03 12:13:36;;;;;;;6.80;1.10;;;;;;;-145.63;26.70;39047.72;5056539;28;20455;-66
2024/04/03 12:16:08;;;;;;;10.13;1.02;;;;;;;-145.63;26.59;39098.56;5040008;28;20028;-67
2024/04/03 12:18:50;;;;;;;2.75;0.70;;;;;;;-145.63;26.50;39010.56;5069176;28;20037;-66